Time;durP1;ratioP1;P1;durP2;ratioP2;P2;SDS_P1;SDS_P2;PMS_P1;PMS_P2;Temp;Humidity;BMP_temperature;BMP_pressure;BME280_temperature;BME280_humidity;BME280_pressure;Samples;Min_cycle;Max_cycle;Signal;HPM_P1;HPM_P2
2023/05/05 00:02:01;;;;;;;1.67;1.63;;;;;;;;;;5066875;28;20551;-68
2023/05/05 00:04:27;;;;;;;1.90;1.80;;;;;;;;;;5073347;28;20512;-67
2023/05/05 00:06:53;;;;;;;1.10;1.10;;;;;;;;;;5070668;28;20477;-67
2023/05/05 00:09:21;;;;;;;1.60;1.50;;;;;;;;;;5070550;28;20491;-67
2023/05/05 00:11:47;;;;;;;1.40;1.30;;;;;;;;;;5068430;28;20556;-68
2023/05/05 00:14:13;;;;;;;2.10;1.50;;;;;;;;;;5072345;28;20524;-67
2023/05/05 00:16:39;;;;;;;3.40;1.33;;;;;;;;;;5072044;28;20437;-67
2023/05/05 00:19:05;;;;;;;1.10;1.10;;;;;;;;;;5072114;28;20483;-67
2023/05/05 00:21:31;;;;;;;1.23;1.23;;;;;;;;;;5070345;28;20442;-67
2023/05/05 00:23:57;;;;;;;4.83;1.30;;;;;;;;;;5073255;28;20423;-67
2023/05/05 00:26:23;;;;;;;1.70;1.60;;;;;;;;;;5068100;28;20475;-68
2023/05/05 00:28:49;;;;;;;3.17;1.73;;;;;;;;;;5072244;28;20444;-67
2023/05/05 00:31:16;;;;;;;1.23;1.23;;;;;;;;;;5068092;28;20493;-68
2023/05/05 00:33:42;;;;;;;2.30;1.73;;;;;;;;;;5071134;28;20433;-67
2023/05/05 00:36:08;;;;;;;5.63;3.13;;;;;;;;;;5069791;28;20990;-67
2023/05/05 00:38:34;;;;;;;1.20;1.20;;;;;;;;;;5072677;28;20433;-67
2023/05/05 00:41:00;;;;;;;10.30;1.63;;;;;;;;;;5067955;28;20460;-67
2023/05/05 00:43:26;;;;;;;1.43;1.40;;;;;;;;;;5068498;28;20960;-67
2023/05/05 00:45:57;;;;;;;1.10;1.10;;;;;;;;;;5072261;28;20977;-67
2023/05/05 00:48:24;;;;;;;1.90;1.33;;;;;;;;;;5071791;28;20463;-67
2023/05/05 00:50:50;;;;;;;1.40;1.40;;;;;;;;;;5068030;28;20850;-68
2023/05/05 00:53:16;;;;;;;2.63;1.60;;;;;;;;;;5069502;28;20425;-69
2023/05/05 00:55:42;;;;;;;1.33;1.33;;;;;;;;;;5070320;28;20526;-67
2023/05/05 00:58:08;;;;;;;1.20;1.20;;;;;;;;;;5070032;28;20436;-67
2023/05/05 01:00:34;;;;;;;4.00;1.33;;;;;;;;;;5067546;28;20503;-67
2023/05/05 01:03:00;;;;;;;1.40;1.40;;;;;;;;;;5068408;28;20445;-67
2023/05/05 01:05:27;;;;;;;1.60;1.50;;;;;;;;;;5070020;28;20449;-68
2023/05/05 01:07:59;;;;;;;6.90;1.50;;;;;;;;;;5067399;28;20441;-68
2023/05/05 01:10:29;;;;;;;1.80;1.43;;;;;;;;;;5069410;28;20480;-68
2023/05/05 01:13:10;;;;;;;1.37;1.37;;;;;;;;;;5068476;28;20454;-68
2023/05/05 01:15:39;;;;;;;5.77;1.63;;;;;;;;;;5070099;28;20502;-67
2023/05/05 01:18:21;;;;;;;3.80;1.73;;;;;;;;;;5068895;28;20449;-68
2023/05/05 01:21:04;;;;;;;1.20;1.20;;;;;;;;;;5069626;28;20933;-67
2023/05/05 01:23:49;;;;;;;1.17;1.17;;;;;;;;;;5071199;28;20472;-67
2023/05/05 01:26:35;;;;;;;2.07;1.97;;;;;;;;;;5068470;28;20441;-68
2023/05/05 01:29:01;;;;;;;4.10;1.40;;;;;;;;;;5071843;28;20418;-69
2023/05/05 01:31:50;;;;;;;1.13;1.13;;;;;;;;;;5070106;28;20517;-67
2023/05/05 01:34:16;;;;;;;1.70;1.60;;;;;;;;;;5069501;28;20237;-66
2023/05/05 01:36:45;;;;;;;1.10;1.10;;;;;;;;;;5069747;28;20428;-68
2023/05/05 01:39:14;;;;;;;1.40;1.30;;;;;;;;;;5071195;28;20917;-67
2023/05/05 01:41:41;;;;;;;1.80;1.30;;;;;;;;;;5069618;28;20897;-67
2023/05/05 01:44:09;;;;;;;2.57;1.40;;;;;;;;;;5070531;28;20461;-67
2023/05/05 01:46:36;;;;;;;0.97;0.97;;;;;;;;;;5096316;28;20489;-68
2023/05/05 01:49:02;;;;;;;0.93;0.93;;;;;;;;;;5071274;28;20418;-67
2023/05/05 01:51:29;;;;;;;1.70;1.60;;;;;;;;;;5070792;28;20559;-67
2023/05/05 01:53:57;;;;;;;2.87;1.53;;;;;;;;;;5070646;28;20425;-67
2023/05/05 01:56:24;;;;;;;2.73;1.47;;;;;;;;;;5070373;28;20797;-67
2023/05/05 01:58:51;;;;;;;3.60;1.13;;;;;;;;;;5069705;28;20948;-67
2023/05/05 02:01:18;;;;;;;1.67;1.67;;;;;;;;;;5067771;28;20452;-67
2023/05/05 02:03:46;;;;;;;1.50;1.50;;;;;;;;;;5069189;28;20456;-67
2023/05/05 02:06:12;;;;;;;2.00;2.00;;;;;;;;;;5069936;28;20559;-68
2023/05/05 02:08:39;;;;;;;2.60;2.37;;;;;;;;;;5068710;28;20544;-68
2023/05/05 02:11:05;;;;;;;2.93;2.27;;;;;;;;;;5070453;28;20524;-68
2023/05/05 02:13:31;;;;;;;2.03;2.03;;;;;;;;;;5068219;28;20464;-68
2023/05/05 02:15:58;;;;;;;2.40;1.87;;;;;;;;;;5068786;28;20801;-68
2023/05/05 02:18:25;;;;;;;2.70;2.50;;;;;;;;;;5068732;28;20433;-67
2023/05/05 02:20:52;;;;;;;1.87;1.83;;;;;;;;;;5070583;28;20433;-67
2023/05/05 02:23:18;;;;;;;2.40;2.40;;;;;;;;;;5070429;28;20501;-68
2023/05/05 02:25:48;;;;;;;2.20;2.20;;;;;;;;;;5069912;28;20430;-68
2023/05/05 02:28:22;;;;;;;2.27;2.17;;;;;;;;;;5068455;28;20978;-67
2023/05/05 02:30:56;;;;;;;4.50;2.67;;;;;;;;;;5068307;28;20552;-67
2023/05/05 02:33:23;;;;;;;2.50;2.50;;;;;;;;;;5068686;28;20420;-68
2023/05/05 02:35:50;;;;;;;2.03;1.93;;;;;;;;;;5069844;28;20434;-68
2023/05/05 02:38:17;;;;;;;1.93;1.93;;;;;;;;;;5065187;28;20442;-67
2023/05/05 02:40:44;;;;;;;2.03;2.03;;;;;;;;;;5070457;28;20953;-67
2023/05/05 02:43:12;;;;;;;4.10;1.97;;;;;;;;;;5069895;28;20413;-68
2023/05/05 02:45:38;;;;;;;2.00;2.00;;;;;;;;;;5069888;28;20556;-67
2023/05/05 02:48:04;;;;;;;1.83;1.83;;;;;;;;;;5070014;28;20429;-67
2023/05/05 02:50:31;;;;;;;2.30;1.97;;;;;;;;;;5068197;28;20481;-67
2023/05/05 02:52:57;;;;;;;3.50;2.37;;;;;;;;;;5067678;28;20440;-67
2023/05/05 02:55:25;;;;;;;3.30;1.83;;;;;;;;;;5070010;28;20425;-68
2023/05/05 02:58:04;;;;;;;1.50;1.50;;;;;;;;;;5068890;28;20445;-68
2023/05/05 03:00:36;;;;;;;1.80;1.70;;;;;;;;;;5065592;28;20795;-68
2023/05/05 03:03:21;;;;;;;2.60;2.50;;;;;;;;;;5068226;28;20429;-68
2023/05/05 03:05:53;;;;;;;2.63;1.90;;;;;;;;;;5070017;28;20425;-68
2023/05/05 03:08:36;;;;;;;5.53;3.13;;;;;;;;;;5068549;28;20433;-68
2023/05/05 03:11:06;;;;;;;2.67;2.10;;;;;;;;;;5067246;28;20485;-67
2023/05/05 03:13:36;;;;;;;8.33;2.40;;;;;;;;;;5069556;28;20424;-69
2023/05/05 03:16:05;;;;;;;4.30;2.13;;;;;;;;;;5069427;28;20508;-67
2023/05/05 03:18:33;;;;;;;2.30;2.20;;;;;;;;;;5068553;28;20417;-68
2023/05/05 03:21:06;;;;;;;2.60;2.43;;;;;;;;;;5065928;28;21009;-69
2023/05/05 03:23:32;;;;;;;2.20;2.20;;;;;;;;;;5067243;28;20858;-67
2023/05/05 03:25:58;;;;;;;1.80;1.70;;;;;;;;;;5069829;28;20508;-67
2023/05/05 03:28:24;;;;;;;11.53;2.83;;;;;;;;;;5068218;28;20533;-67
2023/05/05 03:30:50;;;;;;;8.13;4.10;;;;;;;;;;5067348;28;20476;-68
2023/05/05 03:33:16;;;;;;;12.53;4.10;;;;;;;;;;5069328;28;20513;-68
2023/05/05 03:35:42;;;;;;;5.90;3.80;;;;;;;;;;5065698;28;20445;-68
2023/05/05 03:38:08;;;;;;;2.87;2.67;;;;;;;;;;5069356;28;20434;-68
2023/05/05 03:40:34;;;;;;;2.80;2.60;;;;;;;;;;5066515;28;20445;-69
2023/05/05 03:43:00;;;;;;;2.33;2.23;;;;;;;;;;5069363;28;20797;-69
2023/05/05 03:45:26;;;;;;;3.47;3.17;;;;;;;;;;5069406;28;20507;-68
2023/05/05 03:47:52;;;;;;;3.17;2.90;;;;;;;;;;5069249;28;20421;-67
2023/05/05 03:50:18;;;;;;;9.67;3.23;;;;;;;;;;5067427;28;20477;-68
2023/05/05 03:52:44;;;;;;;3.60;2.93;;;;;;;;;;5069313;28;20417;-67
2023/05/05 03:55:10;;;;;;;3.27;3.07;;;;;;;;;;5069107;28;20426;-68
2023/05/05 03:57:36;;;;;;;3.13;2.80;;;;;;;;;;5069463;28;20418;-68
2023/05/05 04:00:02;;;;;;;6.23;2.57;;;;;;;;;;5063780;28;20440;-67
2023/05/05 04:02:28;;;;;;;2.73;2.60;;;;;;;;;;5068667;28;20441;-71
2023/05/05 04:04:54;;;;;;;3.40;3.30;;;;;;;;;;5068776;28;20905;-68
2023/05/05 04:07:22;;;;;;;4.03;3.00;;;;;;;;;;5066198;28;21230;-69
2023/05/05 04:09:48;;;;;;;3.10;3.00;;;;;;;;;;5068776;28;20952;-68
2023/05/05 04:12:14;;;;;;;2.77;2.67;;;;;;;;;;5068685;28;20425;-68
2023/05/05 04:14:40;;;;;;;2.60;2.50;;;;;;;;;;5069325;28;20413;-69
2023/05/05 04:17:06;;;;;;;2.70;2.57;;;;;;;;;;5067087;28;20445;-67
2023/05/05 04:19:32;;;;;;;2.67;2.50;;;;;;;;;;5061762;28;20520;-67
2023/05/05 04:21:59;;;;;;;2.67;2.43;;;;;;;;;;5065312;28;20437;-68
2023/05/05 04:24:25;;;;;;;5.90;5.40;;;;;;;;;;5067640;28;20941;-68
2023/05/05 04:26:52;;;;;;;3.00;2.90;;;;;;;;;;5067656;28;20990;-68
2023/05/05 04:29:18;;;;;;;5.60;2.80;;;;;;;;;;5069306;28;20422;-68
2023/05/05 04:31:44;;;;;;;5.77;3.47;;;;;;;;;;5068204;28;20849;-67
2023/05/05 04:34:10;;;;;;;3.00;2.90;;;;;;;;;;5067101;28;20429;-68
2023/05/05 04:36:36;;;;;;;2.80;2.73;;;;;;;;;;5067096;28;21018;-70
2023/05/05 04:39:02;;;;;;;3.37;2.97;;;;;;;;;;5069137;28;20413;-67
2023/05/05 04:41:28;;;;;;;2.80;2.77;;;;;;;;;;5068708;28;20482;-68
2023/05/05 04:43:54;;;;;;;6.10;2.37;;;;;;;;;;5066605;28;20445;-69
2023/05/05 04:46:20;;;;;;;4.30;2.87;;;;;;;;;;5067169;28;20531;-68
2023/05/05 04:48:46;;;;;;;2.63;2.53;;;;;;;;;;5069276;28;20437;-70
2023/05/05 04:51:12;;;;;;;4.90;2.60;;;;;;;;;;5072221;28;20806;-68
2023/05/05 04:53:38;;;;;;;3.67;3.00;;;;;;;;;;5072141;28;20428;-69
2023/05/05 04:56:04;;;;;;;3.70;3.13;;;;;;;;;;5072238;28;20429;-69
2023/05/05 04:58:30;;;;;;;3.27;2.97;;;;;;;;;;5071096;28;20473;-70
2023/05/05 05:00:56;;;;;;;3.33;3.13;;;;;;;;;;5071710;28;20983;-68
2023/05/05 05:03:22;;;;;;;3.53;3.23;;;;;;;;;;5069853;28;20503;-67
2023/05/05 05:05:48;;;;;;;4.20;3.90;;;;;;;;;;5071312;28;20410;-69
2023/05/05 05:08:17;;;;;;;4.33;4.03;;;;;;;;;;5065505;28;20495;-69
2023/05/05 05:10:44;;;;;;;5.40;3.37;;;;;;;;;;5067688;28;20495;-67
2023/05/05 05:13:10;;;;;;;7.50;2.97;;;;;;;;;;5069613;28;20440;-69
2023/05/05 05:15:39;;;;;;;3.73;3.43;;;;;;;;;;5071663;28;20433;-68
2023/05/05 05:18:05;;;;;;;4.13;3.87;;;;;;;;;;5066938;28;20438;-67
2023/05/05 05:20:31;;;;;;;6.43;5.00;;;;;;;;;;5068902;28;20444;-68
2023/05/05 05:23:00;;;;;;;4.40;4.10;;;;;;;;;;5065548;28;20495;-68
2023/05/05 05:25:26;;;;;;;3.07;2.87;;;;;;;;;;5066093;28;20859;-71
2023/05/05 05:27:52;;;;;;;3.90;3.33;;;;;;;;;;5071672;28;20926;-69
2023/05/05 05:30:18;;;;;;;9.97;4.20;;;;;;;;;;5070080;28;20530;-68
2023/05/05 05:32:44;;;;;;;3.27;3.17;;;;;;;;;;5071099;28;20466;-67
2023/05/05 05:35:10;;;;;;;3.67;3.57;;;;;;;;;;5071625;28;20410;-69
2023/05/05 05:37:36;;;;;;;3.20;3.10;;;;;;;;;;5071342;28;20421;-66
2023/05/05 05:40:04;;;;;;;4.17;3.90;;;;;;;;;;5060389;28;20518;-68
2023/05/05 05:42:30;;;;;;;4.10;3.77;;;;;;;;;;5068859;28;20918;-74
2023/05/05 05:44:57;;;;;;;6.63;3.50;;;;;;;;;;5067818;28;20476;-67
2023/05/05 05:47:23;;;;;;;3.60;3.37;;;;;;;;;;5070071;28;20448;-68
2023/05/05 05:49:49;;;;;;;9.70;4.13;;;;;;;;;;5068365;28;20457;-66
2023/05/05 05:52:15;;;;;;;12.77;4.20;;;;;;;;;;5069568;28;20867;-69
2023/05/05 05:54:41;;;;;;;4.17;3.87;;;;;;;;;;5069177;28;20432;-67
2023/05/05 05:57:07;;;;;;;4.87;4.57;;;;;;;;;;5069835;28;20487;-67
2023/05/05 05:59:33;;;;;;;7.80;3.63;;;;;;;;;;5068330;28;20508;-67
2023/05/05 06:01:59;;;;;;;3.03;3.03;;;;;;;;;;5067079;28;20441;-66
2023/05/05 06:04:25;;;;;;;5.73;4.60;;;;;;;;;;5068512;28;20449;-69
2023/05/05 06:06:51;;;;;;;4.07;3.87;;;;;;;;;;5070455;28;20475;-67
2023/05/05 06:09:17;;;;;;;3.00;3.00;;;;;;;;;;5068032;28;20440;-67
2023/05/05 06:11:43;;;;;;;3.50;3.27;;;;;;;;;;5067360;28;20485;-66
2023/05/05 06:14:09;;;;;;;3.40;3.20;;;;;;;;;;5068454;28;20425;-67
2023/05/05 06:16:35;;;;;;;3.30;3.20;;;;;;;;;;5067241;28;20471;-66
2023/05/05 06:19:01;;;;;;;3.03;2.80;;;;;;;;;;5068037;28;20414;-67
2023/05/05 06:21:27;;;;;;;3.83;3.60;;;;;;;;;;5067923;28;20531;-67
2023/05/05 06:23:53;;;;;;;3.60;3.30;;;;;;;;;;5068444;28;20429;-68
2023/05/05 06:26:20;;;;;;;3.33;3.03;;;;;;;;;;5068651;28;20516;-67
2023/05/05 06:28:46;;;;;;;3.87;3.60;;;;;;;;;;5067370;28;20425;-68
2023/05/05 06:31:13;;;;;;;2.73;2.73;;;;;;;;;;5066933;28;20477;-69
2023/05/05 06:33:39;;;;;;;4.80;3.67;;;;;;;;;;5067176;28;20424;-68
2023/05/05 06:36:05;;;;;;;3.63;3.47;;;;;;;;;;5063548;28;20433;-68
2023/05/05 06:38:31;;;;;;;3.40;3.13;;;;;;;;;;5069264;28;20418;-68
2023/05/05 06:40:57;;;;;;;7.57;3.20;;;;;;;;;;5070336;28;20432;-70
2023/05/05 06:43:23;;;;;;;3.53;3.23;;;;;;;;;;5068874;28;21770;-68
2023/05/05 06:45:49;;;;;;;3.70;3.60;;;;;;;;;;5069369;28;20507;-68
2023/05/05 06:48:15;;;;;;;3.27;3.17;;;;;;;;;;5070385;28;20445;-68
2023/05/05 06:50:41;;;;;;;3.83;3.20;;;;;;;;;;5070098;28;20485;-70
2023/05/05 06:53:07;;;;;;;7.30;4.20;;;;;;;;;;5069948;28;20425;-68
2023/05/05 06:55:33;;;;;;;3.80;3.57;;;;;;;;;;5070112;28;20483;-68
2023/05/05 06:57:59;;;;;;;4.20;3.80;;;;;;;;;;5070306;28;20429;-69
2023/05/05 07:00:25;;;;;;;3.60;3.33;;;;;;;;;;5069624;28;20421;-67
2023/05/05 07:02:51;;;;;;;3.60;3.30;;;;;;;;;;5069856;28;20413;-68
2023/05/05 07:05:17;;;;;;;11.23;2.93;;;;;;;;;;5069027;28;20761;-68
2023/05/05 07:07:51;;;;;;;6.37;3.97;;;;;;;;;;5068990;28;20530;-72
2023/05/05 07:10:17;;;;;;;13.73;3.03;;;;;;;;;;5067025;28;20496;-68
2023/05/05 07:12:43;;;;;;;3.43;3.13;;;;;;;;;;5069623;28;20422;-70
2023/05/05 07:15:09;;;;;;;2.47;2.37;;;;;;;;;;5069609;28;20410;-69
2023/05/05 07:17:35;;;;;;;3.30;3.10;;;;;;;;;;5068843;28;20480;-68
2023/05/05 07:20:01;;;;;;;11.30;3.27;;;;;;;;;;5069999;28;20508;-66
2023/05/05 07:22:27;;;;;;;3.33;3.20;;;;;;;;;;5068720;28;20846;-67
2023/05/05 07:24:53;;;;;;;3.80;3.50;;;;;;;;;;5067172;28;21056;-68
2023/05/05 07:27:21;;;;;;;3.13;2.90;;;;;;;;;;5069984;28;20512;-69
2023/05/05 07:29:47;;;;;;;6.00;2.70;;;;;;;;;;5069498;28;20504;-68
2023/05/05 07:32:13;;;;;;;3.10;2.93;;;;;;;;;;5069135;28;21051;-69
2023/05/05 07:34:39;;;;;;;4.50;2.90;;;;;;;;;;5069651;28;20783;-68
2023/05/05 07:37:05;;;;;;;3.50;3.20;;;;;;;;;;5069611;28;20784;-69
2023/05/05 07:39:31;;;;;;;4.43;3.20;;;;;;;;;;5068328;28;20418;-71
2023/05/05 07:41:57;;;;;;;10.67;3.20;;;;;;;;;;5069286;28;20430;-69
2023/05/05 07:44:23;;;;;;;3.40;3.30;;;;;;;;;;5069566;28;20833;-68
2023/05/05 07:46:50;;;;;;;4.13;2.57;;;;;;;;;;5069095;28;20462;-68
2023/05/05 07:49:16;;;;;;;3.43;3.33;;;;;;;;;;5069787;28;20471;-70
2023/05/05 07:51:42;;;;;;;3.93;3.73;;;;;;;;;;5067464;28;20481;-69
2023/05/05 07:54:08;;;;;;;3.40;3.30;;;;;;;;;;5069504;28;20787;-69
2023/05/05 07:56:34;;;;;;;3.73;3.60;;;;;;;;;;5061096;28;20437;-67
2023/05/05 07:59:00;;;;;;;2.97;2.87;;;;;;;;;;5069715;28;20425;-68
2023/05/05 08:01:26;;;;;;;7.97;3.53;;;;;;;;;;5060894;28;20524;-68
2023/05/05 08:03:52;;;;;;;8.23;3.80;;;;;;;;;;5069075;28;20496;-67
2023/05/05 08:06:22;;;;;;;7.00;4.23;;;;;;;;;;5068970;28;20508;-68
2023/05/05 08:08:48;;;;;;;3.97;3.40;;;;;;;;;;5069712;28;20413;-70
2023/05/05 08:11:15;;;;;;;4.07;3.73;;;;;;;;;;5068559;28;20488;-71
2023/05/05 08:13:44;;;;;;;6.50;3.47;;;;;;;;;;5065625;28;20437;-68
2023/05/05 08:16:10;;;;;;;5.50;3.23;;;;;;;;;;5068724;28;20556;-69
2023/05/05 08:18:36;;;;;;;4.43;3.50;;;;;;;;;;5068033;28;20425;-69
2023/05/05 08:21:02;;;;;;;4.30;4.00;;;;;;;;;;5067544;28;20417;-68
2023/05/05 08:23:28;;;;;;;10.33;4.23;;;;;;;;;;5070476;28;20483;-67
2023/05/05 08:25:54;;;;;;;4.77;4.43;;;;;;;;;;5072655;28;20449;-68
2023/05/05 08:28:21;;;;;;;7.50;4.00;;;;;;;;;;5071758;28;20445;-68
2023/05/05 08:30:48;;;;;;;3.40;3.30;;;;;;;;;;5072345;28;20473;-68
2023/05/05 08:33:15;;;;;;;3.80;3.50;;;;;;;;;;5068638;28;20448;-69
2023/05/05 08:35:41;;;;;;;4.03;3.60;;;;;;;;;;5072622;28;20425;-67
2023/05/05 08:38:07;;;;;;;4.10;3.90;;;;;;;;;;5072783;28;20437;-68
2023/05/05 08:40:33;;;;;;;4.07;3.90;;;;;;;;;;5072632;28;20409;-67
2023/05/05 08:43:00;;;;;;;3.50;3.40;;;;;;;;;;5072507;28;20937;-67
2023/05/05 08:45:27;;;;;;;4.83;4.73;;;;;;;;;;5071892;28;20468;-69
2023/05/05 08:47:55;;;;;;;3.40;3.30;;;;;;;;;;5069875;28;20449;-68
2023/05/05 08:50:22;;;;;;;4.33;4.03;;;;;;;;;;5062231;28;20482;-68
2023/05/05 08:52:53;;;;;;;4.13;3.80;;;;;;;;;;5067111;28;20934;-68
2023/05/05 08:55:25;;;;;;;2.90;2.80;;;;;;;;;;5070644;28;20451;-67
2023/05/05 08:57:53;;;;;;;3.97;3.77;;;;;;;;;;5070633;28;20504;-68
2023/05/05 09:00:20;;;;;;;5.00;4.63;;;;;;;;;;5071887;28;20513;-68
2023/05/05 09:02:47;;;;;;;5.33;4.60;;;;;;;;;;5070211;28;20819;-68
2023/05/05 09:05:13;;;;;;;14.33;4.23;;;;;;;;;;5070357;28;20917;-71
2023/05/05 09:07:42;;;;;;;4.30;4.13;;;;;;;;;;5069625;28;20449;-68
2023/05/05 09:10:10;;;;;;;6.23;4.67;;;;;;;;;;5071111;28;20504;-68
2023/05/05 09:12:39;;;;;;;7.80;4.37;;;;;;;;;;5071580;28;20505;-68
2023/05/05 09:15:05;;;;;;;4.80;4.40;;;;;;;;;;5067890;28;20429;-68
2023/05/05 09:17:31;;;;;;;6.40;4.10;;;;;;;;;;5070782;28;20414;-67
2023/05/05 09:20:03;;;;;;;4.40;3.90;;;;;;;;;;5069710;28;20471;-69
2023/05/05 09:22:35;;;;;;;5.60;5.03;;;;;;;;;;5067439;28;20445;-69
2023/05/05 09:25:01;;;;;;;4.13;3.83;;;;;;;;;;5069614;28;20498;-70
2023/05/05 09:27:27;;;;;;;4.17;3.87;;;;;;;;;;5071080;28;20433;-68
2023/05/05 09:29:55;;;;;;;8.07;5.30;;;;;;;;;;5070122;28;20880;-74
2023/05/05 09:32:21;;;;;;;5.30;5.00;;;;;;;;;;5070748;28;20498;-68
2023/05/05 09:35:00;;;;;;;4.23;3.93;;;;;;;;;;5071396;28;20431;-69
2023/05/05 09:37:27;;;;;;;4.40;4.20;;;;;;;;;;5071563;28;20513;-72
2023/05/05 09:39:53;;;;;;;5.30;5.00;;;;;;;;;;5071502;28;20457;-69
2023/05/05 09:42:19;;;;;;;4.63;4.43;;;;;;;;;;5069989;28;20433;-68
2023/05/05 09:44:45;;;;;;;3.97;3.63;;;;;;;;;;5066175;28;20452;-69
2023/05/05 09:47:11;;;;;;;3.40;3.20;;;;;;;;;;5067976;28;20439;-69
2023/05/05 09:49:37;;;;;;;2.90;2.90;;;;;;;;;;5070853;28;20784;-67
2023/05/05 09:52:15;;;;;;;3.47;3.30;;;;;;;;;;5068362;28;20724;-68
2023/05/05 09:54:42;;;;;;;4.50;4.30;;;;;;;;;;5070041;28;20417;-66
2023/05/05 09:57:08;;;;;;;4.47;4.30;;;;;;;;;;5070351;28;20517;-72
2023/05/05 09:59:34;;;;;;;4.47;4.27;;;;;;;;;;5066696;28;20810;-71
2023/05/05 10:02:13;;;;;;;3.70;3.60;;;;;;;;;;5067484;28;20849;-69
2023/05/05 10:04:40;;;;;;;9.17;4.03;;;;;;;;;;5066189;28;20445;-69
2023/05/05 10:07:06;;;;;;;4.27;4.07;;;;;;;;;;5067145;28;20794;-68
2023/05/05 10:09:32;;;;;;;3.90;3.80;;;;;;;;;;5049607;28;20448;-70
2023/05/05 10:12:00;;;;;;;4.00;3.80;;;;;;;;;;5059289;28;20485;-68
2023/05/05 10:14:26;;;;;;;3.07;3.07;;;;;;;;;;5062948;28;20456;-67
2023/05/05 10:16:53;;;;;;;7.30;3.30;;;;;;;;;;5062364;28;20446;-67
2023/05/05 10:19:20;;;;;;;5.40;3.70;;;;;;;;;;5063952;28;20922;-68
2023/05/05 10:21:48;;;;;;;4.43;4.13;;;;;;;;;;5065715;28;20473;-68
2023/05/05 10:24:17;;;;;;;3.50;3.40;;;;;;;;;;5063760;28;20473;-67
2023/05/05 10:26:43;;;;;;;4.50;4.20;;;;;;;;;;5061079;28;20438;-70
2023/05/05 10:29:23;;;;;;;3.00;3.00;;;;;;;;;;5070101;28;20442;-69
2023/05/05 10:31:52;;;;;;;8.50;3.20;;;;;;;;;;5069587;28;20469;-67
2023/05/05 10:34:24;;;;;;;4.37;3.07;;;;;;;;;;5067607;28;20993;-68
2023/05/05 10:36:50;;;;;;;3.40;3.30;;;;;;;;;;5067606;28;20449;-67
2023/05/05 10:39:18;;;;;;;6.97;3.63;;;;;;;;;;5070277;28;20437;-69
2023/05/05 10:41:46;;;;;;;3.23;2.90;;;;;;;;;;5068609;28;20880;-68
2023/05/05 10:44:13;;;;;;;3.83;3.70;;;;;;;;;;5069381;28;20440;-69
2023/05/05 10:46:39;;;;;;;3.27;3.07;;;;;;;;;;5068657;28;20519;-67
2023/05/05 10:49:10;;;;;;;5.53;3.00;;;;;;;;;;5070416;28;20425;-69
2023/05/05 10:51:43;;;;;;;3.50;3.13;;;;;;;;;;5069238;28;20516;-70
2023/05/05 10:54:28;;;;;;;3.87;3.73;;;;;;;;;;5069788;28;20421;-69
2023/05/05 10:56:54;;;;;;;2.90;2.90;;;;;;;;;;5067754;28;20483;-67
2023/05/05 10:59:35;;;;;;;4.83;2.87;;;;;;;;;;5070205;28;20843;-67
2023/05/05 11:02:28;;;;;;;2.83;2.60;;;;;;;;;;5068639;28;20483;-67
2023/05/05 11:05:08;;;;;;;4.10;2.70;;;;;;;;;;5068602;28;20441;-68
2023/05/05 11:07:34;;;;;;;5.38;2.40;;;;;;;;;;5068599;28;20478;-61
2023/05/05 11:10:01;;;;;;;2.27;2.17;;;;;;;;;;5068037;28;20228;-67
2023/05/05 11:12:27;;;;;;;2.23;2.13;;;;;;;;;;5065639;28;20454;-68
2023/05/05 11:15:12;;;;;;;1.60;1.50;;;;;;;;;;5068403;28;20914;-71
2023/05/05 11:17:47;;;;;;;1.63;1.53;;;;;;;;;;5061151;28;20452;-71
2023/05/05 11:20:13;;;;;;;2.10;1.40;;;;;;;;;;5064533;28;20443;-67
2023/05/05 11:23:08;;;;;;;1.47;1.47;;;;;;;;;;5064614;28;20887;-68
2023/05/05 11:25:34;;;;;;;1.50;1.50;;;;;;;;;;5065724;28;20436;-69
2023/05/05 11:28:04;;;;;;;1.50;1.50;;;;;;;;;;5067144;28;21033;-67
2023/05/05 11:30:30;;;;;;;1.80;1.73;;;;;;;;;;5058741;28;21079;-67
2023/05/05 11:33:15;;;;;;;2.87;1.37;;;;;;;;;;5064718;28;20441;-66
2023/05/05 11:36:01;;;;;;;2.00;1.70;;;;;;;;;;5068934;28;20413;-68
2023/05/05 11:38:36;;;;;;;4.27;3.60;;;;;;;;;;5066390;28;20445;-67
2023/05/05 11:41:13;;;;;;;1.27;1.27;;;;;;;;;;5062180;28;20445;-67
2023/05/05 11:43:42;;;;;;;1.37;1.37;;;;;;;;;;5066988;28;20456;-73
2023/05/05 11:46:11;;;;;;;1.40;1.40;;;;;;;;;;5068323;28;20838;-68
2023/05/05 11:48:52;;;;;;;1.73;1.60;;;;;;;;;;5067538;28;20429;-69
2023/05/05 11:51:20;;;;;;;9.13;1.47;;;;;;;;;;5061236;28;20500;-68
2023/05/05 11:53:47;;;;;;;1.70;1.57;;;;;;;;;;5067408;28;20472;-68
2023/05/05 11:56:23;;;;;;;1.40;1.40;;;;;;;;;;5067242;28;20449;-68
2023/05/05 11:59:04;;;;;;;2.10;1.97;;;;;;;;;;5070941;28;20434;-67
2023/05/05 12:01:30;;;;;;;5.60;1.97;;;;;;;;;;5061696;28;20499;-68
2023/05/05 12:03:56;;;;;;;1.40;1.40;;;;;;;;;;5069741;28;20437;-68
2023/05/05 12:06:23;;;;;;;2.90;1.63;;;;;;;;;;5070561;28;20478;-68
2023/05/05 12:08:49;;;;;;;1.83;1.20;;;;;;;;;;5070649;28;20452;-68
2023/05/05 12:11:14;;;;;;;2.17;1.20;;;;;;;;;;5071705;28;20480;-70
2023/05/05 12:13:40;;;;;;;3.23;1.03;;;;;;;;;;5072561;28;20495;-71
2023/05/05 12:16:13;;;;;;;1.17;1.17;;;;;;;;;;5054545;28;20441;-73
2023/05/05 12:18:40;;;;;;;1.40;1.30;;;;;;;;;;5073135;28;20502;-68
2023/05/05 12:21:14;;;;;;;1.90;1.53;;;;;;;;;;5073119;28;20433;-68
2023/05/05 12:23:40;;;;;;;2.40;1.20;;;;;;;;;;5072862;28;20432;-67
2023/05/05 12:26:06;;;;;;;1.20;1.20;;;;;;;;;;5070888;28;20421;-68
2023/05/05 12:28:43;;;;;;;1.63;1.40;;;;;;;;;;5073208;28;20917;-69
2023/05/05 12:31:09;;;;;;;1.97;1.87;;;;;;;;;;5071995;28;20492;-68
2023/05/05 12:33:39;;;;;;;4.00;1.83;;;;;;;;;;5072262;28;20424;-71
2023/05/05 12:36:05;;;;;;;1.17;1.17;;;;;;;;;;5072204;28;20441;-67
2023/05/05 12:38:31;;;;;;;1.80;1.50;;;;;;;;;;5072898;28;20428;-68
2023/05/05 12:40:57;;;;;;;1.80;1.70;;;;;;;;;;5065567;28;20437;-67
2023/05/05 12:43:33;;;;;;;1.70;1.60;;;;;;;;;;5070010;28;20421;-68
2023/05/05 12:45:59;;;;;;;1.23;1.23;;;;;;;;;;5070077;28;20480;-70
2023/05/05 12:48:25;;;;;;;1.23;1.23;;;;;;;;;;5071301;28;20434;-67
2023/05/05 12:50:51;;;;;;;1.80;1.17;;;;;;;;;;5070283;28;20469;-68
2023/05/05 12:53:25;;;;;;;1.60;1.57;;;;;;;;;;5069289;28;20444;-68
2023/05/05 12:55:51;;;;;;;1.20;1.20;;;;;;;;;;5072602;28;20417;-69
2023/05/05 12:58:17;;;;;;;1.30;1.30;;;;;;;;;;5071809;28;20480;-68
2023/05/05 13:00:43;;;;;;;4.43;1.30;;;;;;;;;;5071654;28;20426;-71
2023/05/05 13:03:19;;;;;;;1.50;1.50;;;;;;;;;;5071998;28;20796;-68
2023/05/05 13:05:45;;;;;;;4.47;1.97;;;;;;;;;;5071295;28;21014;-68
2023/05/05 13:08:11;;;;;;;1.30;1.30;;;;;;;;;;5072105;28;20491;-69
2023/05/05 13:10:40;;;;;;;1.50;1.40;;;;;;;;;;5070046;28;20485;-67
2023/05/05 13:13:07;;;;;;;1.30;1.30;;;;;;;;;;5071970;28;20422;-67
2023/05/05 13:15:33;;;;;;;2.30;1.60;;;;;;;;;;5070990;28;20468;-70
2023/05/05 13:17:59;;;;;;;4.07;2.20;;;;;;;;;;5071167;28;20460;-68
2023/05/05 13:20:26;;;;;;;1.63;1.53;;;;;;;;;;5071062;28;20491;-69
2023/05/05 13:22:52;;;;;;;1.70;1.50;;;;;;;;;;5070768;28;20478;-68
2023/05/05 13:25:18;;;;;;;1.60;1.60;;;;;;;;;;5071938;28;20528;-67
2023/05/05 13:27:44;;;;;;;1.80;1.70;;;;;;;;;;5071840;28;20433;-68
2023/05/05 13:30:10;;;;;;;1.30;1.30;;;;;;;;;;5070853;28;20468;-68
2023/05/05 13:32:36;;;;;;;1.67;1.67;;;;;;;;;;5070724;28;20445;-68
2023/05/05 13:35:02;;;;;;;1.00;1.00;;;;;;;;;;5071861;28;20418;-69
2023/05/05 13:37:28;;;;;;;1.50;1.40;;;;;;;;;;5071388;28;20458;-67
2023/05/05 13:39:58;;;;;;;1.67;1.57;;;;;;;;;;5071492;28;21023;-69
2023/05/05 13:42:23;;;;;;;2.43;2.33;;;;;;;;;;5071377;28;20421;-67
2023/05/05 13:44:49;;;;;;;5.43;1.57;;;;;;;;;;5071374;28;20418;-69
2023/05/05 13:47:15;;;;;;;1.55;1.55;;;;;;;;;;5067802;28;20469;-70
2023/05/05 13:49:41;;;;;;;1.97;1.87;;;;;;;;;;5071138;28;20191;-74
2023/05/05 13:52:07;;;;;;;1.67;1.57;;;;;;;;;;5070482;28;20882;-70
2023/05/05 13:54:33;;;;;;;2.03;1.70;;;;;;;;;;5071698;28;20406;-71
2023/05/05 13:56:59;;;;;;;5.37;2.07;;;;;;;;;;5071372;28;20800;-68
2023/05/05 13:59:26;;;;;;;4.47;2.27;;;;;;;;;;5070291;28;20795;-71
2023/05/05 14:01:52;;;;;;;2.87;1.40;;;;;;;;;;5070263;28;20433;-72
2023/05/05 14:04:18;;;;;;;1.50;1.33;;;;;;;;;;5071291;28;20461;-69
2023/05/05 14:06:44;;;;;;;5.70;1.77;;;;;;;;;;5071213;28;20444;-71
2023/05/05 14:09:10;;;;;;;2.07;1.87;;;;;;;;;;5070532;28;20425;-68
2023/05/05 14:11:36;;;;;;;2.00;2.00;;;;;;;;;;5069929;28;20487;-68
2023/05/05 14:14:02;;;;;;;2.10;2.00;;;;;;;;;;5070919;28;20913;-69
2023/05/05 14:16:28;;;;;;;2.30;1.83;;;;;;;;;;5071001;28;20425;-71
2023/05/05 14:18:54;;;;;;;2.40;2.20;;;;;;;;;;5070241;28;20462;-72
2023/05/05 14:21:20;;;;;;;2.20;2.10;;;;;;;;;;5067396;28;20499;-69
2023/05/05 14:23:46;;;;;;;3.40;2.10;;;;;;;;;;5068102;28;20491;-71
2023/05/05 14:26:12;;;;;;;1.53;1.53;;;;;;;;;;5068113;28;20833;-68
2023/05/05 14:28:37;;;;;;;6.63;3.10;;;;;;;;;;5067935;28;20501;-71
2023/05/05 14:31:04;;;;;;;6.93;2.80;;;;;;;;;;5066232;28;20488;-67
2023/05/05 14:33:30;;;;;;;3.63;3.07;;;;;;;;;;5067090;28;20468;-68
2023/05/05 14:35:55;;;;;;;3.00;2.70;;;;;;;;;;5065515;28;20449;-68
2023/05/05 14:38:21;;;;;;;3.90;3.60;;;;;;;;;;5067169;28;20441;-67
2023/05/05 14:40:47;;;;;;;4.43;2.23;;;;;;;;;;5070445;28;20937;-67
2023/05/05 14:43:13;;;;;;;17.50;3.70;;;;;;;;;;5069306;28;20930;-67
2023/05/05 14:45:40;;;;;;;4.30;2.37;;;;;;;;;;5061527;28;20489;-67
2023/05/05 14:48:06;;;;;;;5.43;2.10;;;;;;;;;;5067413;28;20504;-66